sensor_id;sensor_type;location;lat;lon;timestamp;pressure;altitude;pressure_sealevel;temperature;humidity
77321;BME280;66382;52.252;8.780;2023-04-15T00:00:46;99920.72;;;9.00;57.12
77321;BME280;66382;52.252;8.780;2023-04-15T00:03:12;99908.00;;;9.02;57.32
77321;BME280;66382;52.252;8.780;2023-04-15T00:05:39;99913.56;;;9.00;56.77
77321;BME280;66382;52.252;8.780;2023-04-15T00:08:04;99904.50;;;9.01;56.30
77321;BME280;66382;52.252;8.780;2023-04-15T00:10:30;99905.97;;;9.04;56.22
77321;BME280;66382;52.252;8.780;2023-04-15T00:12:56;99911.47;;;9.02;55.85
77321;BME280;66382;52.252;8.780;2023-04-15T00:15:22;99916.59;;;8.97;56.38
77321;BME280;66382;52.252;8.780;2023-04-15T00:17:49;99913.91;;;8.97;56.56
77321;BME280;66382;52.252;8.780;2023-04-15T00:20:15;99916.59;;;8.97;56.65
77321;BME280;66382;52.252;8.780;2023-04-15T00:22:42;99907.56;;;8.98;56.44
77321;BME280;66382;52.252;8.780;2023-04-15T00:25:08;99902.84;;;9.00;56.04
77321;BME280;66382;52.252;8.780;2023-04-15T00:27:34;99903.84;;;8.99;56.24
77321;BME280;66382;52.252;8.780;2023-04-15T00:29:59;99904.06;;;8.98;56.38
77321;BME280;66382;52.252;8.780;2023-04-15T00:32:25;99901.56;;;8.96;55.77
77321;BME280;66382;52.252;8.780;2023-04-15T00:34:51;99906.75;;;8.98;56.37
77321;BME280;66382;52.252;8.780;2023-04-15T00:37:16;99907.75;;;8.97;56.96
77321;BME280;66382;52.252;8.780;2023-04-15T00:39:43;99902.41;;;8.97;56.93
77321;BME280;66382;52.252;8.780;2023-04-15T00:42:09;99898.72;;;8.98;57.18
77321;BME280;66382;52.252;8.780;2023-04-15T00:44:35;99896.22;;;8.96;56.57
77321;BME280;66382;52.252;8.780;2023-04-15T00:47:01;99905.72;;;8.99;56.84
77321;BME280;66382;52.252;8.780;2023-04-15T00:49:28;99902.84;;;9.00;57.64
77321;BME280;66382;52.252;8.780;2023-04-15T00:51:54;99907.16;;;9.01;57.68
77321;BME280;66382;52.252;8.780;2023-04-15T00:54:20;99905.53;;;9.00;57.94
77321;BME280;66382;52.252;8.780;2023-04-15T00:56:47;99902.63;;;9.02;57.54
77321;BME280;66382;52.252;8.780;2023-04-15T00:59:13;99902.63;;;9.02;57.31
77321;BME280;66382;52.252;8.780;2023-04-15T01:01:39;99897.69;;;8.99;57.34
77321;BME280;66382;52.252;8.780;2023-04-15T01:04:05;99900.19;;;9.00;56.94
77321;BME280;66382;52.252;8.780;2023-04-15T01:06:31;99893.97;;;9.00;57.32
77321;BME280;66382;52.252;8.780;2023-04-15T01:08:57;99901.41;;;8.98;57.34
77321;BME280;66382;52.252;8.780;2023-04-15T01:11:23;99902.78;;;8.94;57.20
77321;BME280;66382;52.252;8.780;2023-04-15T01:13:51;99902.16;;;8.92;57.40
77321;BME280;66382;52.252;8.780;2023-04-15T01:16:17;99899.88;;;8.89;56.97
77321;BME280;66382;52.252;8.780;2023-04-15T01:18:43;99901.72;;;8.88;57.06
77321;BME280;66382;52.252;8.780;2023-04-15T01:21:09;99901.72;;;8.88;57.57
77321;BME280;66382;52.252;8.780;2023-04-15T01:23:36;99905.84;;;8.91;57.25
77321;BME280;66382;52.252;8.780;2023-04-15T01:26:03;99903.38;;;8.89;57.47
77321;BME280;66382;52.252;8.780;2023-04-15T01:28:29;99905.03;;;8.90;57.30
77321;BME280;66382;52.252;8.780;2023-04-15T01:31:05;99901.09;;;8.86;55.93
77321;BME280;66382;52.252;8.780;2023-04-15T01:33:31;99903.53;;;8.88;57.94
77321;BME280;66382;52.252;8.780;2023-04-15T01:35:57;99904.56;;;8.87;56.88
77321;BME280;66382;52.252;8.780;2023-04-15T01:38:24;99885.19;;;8.78;57.43
77321;BME280;66382;52.252;8.780;2023-04-15T01:40:50;99897.13;;;8.82;57.49
77321;BME280;66382;52.252;8.780;2023-04-15T01:43:17;99901.84;;;8.80;57.68
77321;BME280;66382;52.252;8.780;2023-04-15T01:45:43;99895.66;;;8.79;57.62
77321;BME280;66382;52.252;8.780;2023-04-15T01:48:08;99896.88;;;8.77;58.23
77321;BME280;66382;52.252;8.780;2023-04-15T01:50:34;99889.06;;;8.75;57.74
77321;BME280;66382;52.252;8.780;2023-04-15T01:53:00;99895.41;;;8.74;57.53
77321;BME280;66382;52.252;8.780;2023-04-15T01:55:25;99890.25;;;8.73;57.16
77321;BME280;66382;52.252;8.780;2023-04-15T01:57:51;99889.25;;;8.74;58.13
77321;BME280;66382;52.252;8.780;2023-04-15T02:00:18;99884.91;;;8.73;57.72
77321;BME280;66382;52.252;8.780;2023-04-15T02:02:44;99889.44;;;8.72;57.45
77321;BME280;66382;52.252;8.780;2023-04-15T02:05:10;99892.31;;;8.71;57.71
77321;BME280;66382;52.252;8.780;2023-04-15T02:07:35;99892.31;;;8.71;57.66
77321;BME280;66382;52.252;8.780;2023-04-15T02:10:01;99883.66;;;8.69;57.84
77321;BME280;66382;52.252;8.780;2023-04-15T02:12:27;99877.81;;;8.58;57.31
77321;BME280;66382;52.252;8.780;2023-04-15T02:14:52;99895.56;;;8.66;57.12
77321;BME280;66382;52.252;8.780;2023-04-15T02:17:19;99894.53;;;8.67;58.01
77321;BME280;66382;52.252;8.780;2023-04-15T02:19:45;99898.22;;;8.66;57.93
77321;BME280;66382;52.252;8.780;2023-04-15T02:22:11;99900.06;;;8.66;58.20
77321;BME280;66382;52.252;8.780;2023-04-15T02:24:36;99900.25;;;8.64;57.83
77321;BME280;66382;52.252;8.780;2023-04-15T02:27:02;99906.63;;;8.63;57.71
77321;BME280;66382;52.252;8.780;2023-04-15T02:29:28;99906.00;;;8.61;58.67
77321;BME280;66382;52.252;8.780;2023-04-15T02:31:55;99900.66;;;8.61;58.46
77321;BME280;66382;52.252;8.780;2023-04-15T02:34:23;99904.69;;;8.57;58.08
77321;BME280;66382;52.252;8.780;2023-04-15T02:36:48;99905.09;;;8.54;58.38
77321;BME280;66382;52.252;8.780;2023-04-15T02:39:14;99905.28;;;8.52;58.09
77321;BME280;66382;52.252;8.780;2023-04-15T02:41:40;99896.81;;;8.49;58.63
77321;BME280;66382;52.252;8.780;2023-04-15T02:44:05;99904.00;;;8.48;57.43
77321;BME280;66382;52.252;8.780;2023-04-15T02:46:31;99907.69;;;8.47;58.06
77321;BME280;66382;52.252;8.780;2023-04-15T02:48:57;99900.69;;;8.46;58.05
77321;BME280;66382;52.252;8.780;2023-04-15T02:51:24;99903.38;;;8.46;58.27
77321;BME280;66382;52.252;8.780;2023-04-15T02:53:49;99899.03;;;8.45;58.49
77321;BME280;66382;52.252;8.780;2023-04-15T02:56:15;99894.88;;;8.43;58.25
77321;BME280;66382;52.252;8.780;2023-04-15T02:58:42;99885.94;;;8.35;58.20
77321;BME280;66382;52.252;8.780;2023-04-15T03:01:08;99895.63;;;8.36;58.78
77321;BME280;66382;52.252;8.780;2023-04-15T03:03:34;99896.44;;;8.37;58.69
77321;BME280;66382;52.252;8.780;2023-04-15T03:06:00;99892.31;;;8.34;58.05
77321;BME280;66382;52.252;8.780;2023-04-15T03:08:27;99894.16;;;8.34;59.70
77321;BME280;66382;52.252;8.780;2023-04-15T03:10:52;99891.03;;;8.30;57.77
77321;BME280;66382;52.252;8.780;2023-04-15T03:13:18;99902.75;;;8.29;59.26
77321;BME280;66382;52.252;8.780;2023-04-15T03:15:45;99895.09;;;8.26;57.83
77321;BME280;66382;52.252;8.780;2023-04-15T03:18:11;99891.59;;;8.26;58.10
77321;BME280;66382;52.252;8.780;2023-04-15T03:20:37;99883.56;;;8.26;57.93
77321;BME280;66382;52.252;8.780;2023-04-15T03:23:02;99886.25;;;8.26;58.72
77321;BME280;66382;52.252;8.780;2023-04-15T03:25:30;99893.25;;;8.27;58.19
77321;BME280;66382;52.252;8.780;2023-04-15T03:27:55;99892.44;;;8.26;58.37
77321;BME280;66382;52.252;8.780;2023-04-15T03:30:21;99882.59;;;8.27;59.15
77321;BME280;66382;52.252;8.780;2023-04-15T03:32:47;99886.25;;;8.26;59.02
77321;BME280;66382;52.252;8.780;2023-04-15T03:35:12;99881.94;;;8.25;58.62
77321;BME280;66382;52.252;8.780;2023-04-15T03:37:38;99875.13;;;8.22;58.29
77321;BME280;66382;52.252;8.780;2023-04-15T03:40:05;99896.31;;;8.24;58.51
77321;BME280;66382;52.252;8.780;2023-04-15T03:42:32;99903.03;;;8.19;59.10
77321;BME280;66382;52.252;8.780;2023-04-15T03:44:58;99897.88;;;8.18;60.13
77321;BME280;66382;52.252;8.780;2023-04-15T03:47:23;99901.94;;;8.14;60.31
77321;BME280;66382;52.252;8.780;2023-04-15T03:49:49;99904.97;;;8.11;58.83
77321;BME280;66382;52.252;8.780;2023-04-15T03:52:15;99902.50;;;8.09;58.45
77321;BME280;66382;52.252;8.780;2023-04-15T03:54:40;99915.03;;;8.09;59.41
77321;BME280;66382;52.252;8.780;2023-04-15T03:57:06;99909.88;;;8.07;58.68
77321;BME280;66382;52.252;8.780;2023-04-15T03:59:33;99908.84;;;8.08;59.56
77321;BME280;66382;52.252;8.780;2023-04-15T04:01:59;99915.84;;;8.09;58.32
77321;BME280;66382;52.252;8.780;2023-04-15T04:04:24;99903.72;;;8.07;57.87
77321;BME280;66382;52.252;8.780;2023-04-15T04:06:50;99909.22;;;8.05;59.71
77321;BME280;66382;52.252;8.780;2023-04-15T04:09:16;99906.56;;;8.05;60.37
77321;BME280;66382;52.252;8.780;2023-04-15T04:11:41;99908.50;;;8.11;59.53
77321;BME280;66382;52.252;8.780;2023-04-15T04:14:07;99904.63;;;8.14;59.13
77321;BME280;66382;52.252;8.780;2023-04-15T04:16:34;99911.22;;;8.18;59.06
77321;BME280;66382;52.252;8.780;2023-04-15T04:19:00;99916.00;;;8.23;59.45
77321;BME280;66382;52.252;8.780;2023-04-15T04:21:26;99914.81;;;8.25;59.63
77321;BME280;66382;52.252;8.780;2023-04-15T04:23:52;99917.47;;;8.25;59.74
77321;BME280;66382;52.252;8.780;2023-04-15T04:26:17;99912.59;;;8.29;60.23
77321;BME280;66382;52.252;8.780;2023-04-15T04:28:43;99915.91;;;8.31;59.55
77321;BME280;66382;52.252;8.780;2023-04-15T04:31:09;99909.53;;;8.32;59.15
77321;BME280;66382;52.252;8.780;2023-04-15T04:33:36;99895.94;;;8.27;59.13
77321;BME280;66382;52.252;8.780;2023-04-15T04:36:02;99917.38;;;8.33;59.13
77321;BME280;66382;52.252;8.780;2023-04-15T04:38:28;99910.38;;;8.32;59.35
77321;BME280;66382;52.252;8.780;2023-04-15T04:40:53;99906.22;;;8.30;59.76
77321;BME280;66382;52.252;8.780;2023-04-15T04:43:19;99908.06;;;8.29;59.39
77321;BME280;66382;52.252;8.780;2023-04-15T04:45:45;99911.56;;;8.30;60.01
77321;BME280;66382;52.252;8.780;2023-04-15T04:48:10;99917.28;;;8.27;59.59
77321;BME280;66382;52.252;8.780;2023-04-15T04:50:38;99915.00;;;8.24;59.27
77321;BME280;66382;52.252;8.780;2023-04-15T04:53:03;99919.31;;;8.25;59.14
77321;BME280;66382;52.252;8.780;2023-04-15T04:55:29;99919.06;;;8.19;59.34
77321;BME280;66382;52.252;8.780;2023-04-15T04:57:55;99926.25;;;8.19;59.94
77321;BME280;66382;52.252;8.780;2023-04-15T05:00:21;99927.06;;;8.19;60.23
77321;BME280;66382;52.252;8.780;2023-04-15T05:02:46;99922.38;;;8.22;60.66
77321;BME280;66382;52.252;8.780;2023-04-15T05:05:12;99927.72;;;8.22;60.11
77321;BME280;66382;52.252;8.780;2023-04-15T05:07:39;99929.63;;;8.28;59.60
77321;BME280;66382;52.252;8.780;2023-04-15T05:10:06;99923.06;;;8.30;60.22
77321;BME280;66382;52.252;8.780;2023-04-15T05:12:32;99922.72;;;8.33;60.01
77321;BME280;66382;52.252;8.780;2023-04-15T05:14:58;99921.50;;;8.36;59.08
77321;BME280;66382;52.252;8.780;2023-04-15T05:17:23;99922.13;;;8.38;60.25
77321;BME280;66382;52.252;8.780;2023-04-15T05:19:49;99931.63;;;8.40;59.85
77321;BME280;66382;52.252;8.780;2023-04-15T05:22:15;99936.63;;;8.44;60.51
77321;BME280;66382;52.252;8.780;2023-04-15T05:24:42;99931.47;;;8.42;59.85
77321;BME280;66382;52.252;8.780;2023-04-15T05:27:07;99934.78;;;8.44;60.08
77321;BME280;66382;52.252;8.780;2023-04-15T05:29:33;99933.31;;;8.42;60.57
77321;BME280;66382;52.252;8.780;2023-04-15T05:31:59;99927.69;;;8.36;60.16
77321;BME280;66382;52.252;8.780;2023-04-15T05:34:25;99945.19;;;8.39;60.16
77321;BME280;66382;52.252;8.780;2023-04-15T05:36:50;99940.81;;;8.38;60.76
77321;BME280;66382;52.252;8.780;2023-04-15T05:39:16;99943.78;;;8.43;60.43
77321;BME280;66382;52.252;8.780;2023-04-15T05:41:43;99943.44;;;8.46;60.37
77321;BME280;66382;52.252;8.780;2023-04-15T05:44:09;99938.84;;;8.40;60.28
77321;BME280;66382;52.252;8.780;2023-04-15T05:46:35;99949.22;;;8.35;61.01
77321;BME280;66382;52.252;8.780;2023-04-15T05:49:00;99937.06;;;8.32;59.97
77321;BME280;66382;52.252;8.780;2023-04-15T05:51:26;99943.06;;;8.34;60.45
77321;BME280;66382;52.252;8.780;2023-04-15T05:53:52;99930.91;;;8.32;60.69
77321;BME280;66382;52.252;8.780;2023-04-15T05:56:17;99948.56;;;8.33;60.46
77321;BME280;66382;52.252;8.780;2023-04-15T05:58:44;99947.59;;;8.34;60.81
77321;BME280;66382;52.252;8.780;2023-04-15T06:01:10;99945.56;;;8.36;60.33
77321;BME280;66382;52.252;8.780;2023-04-15T06:03:36;99947.38;;;8.35;60.84
77321;BME280;66382;52.252;8.780;2023-04-15T06:06:02;99949.22;;;8.35;60.34
77321;BME280;66382;52.252;8.780;2023-04-15T06:08:28;99952.91;;;8.34;60.77
77321;BME280;66382;52.252;8.780;2023-04-15T06:10:54;99961.94;;;8.33;60.46
77321;BME280;66382;52.252;8.780;2023-04-15T06:13:19;99960.13;;;8.33;61.56
77321;BME280;66382;52.252;8.780;2023-04-15T06:15:47;99949.13;;;8.28;61.72
77321;BME280;66382;52.252;8.780;2023-04-15T06:18:12;99958.44;;;8.32;61.46
77321;BME280;66382;52.252;8.780;2023-04-15T06:20:38;99963.13;;;8.30;62.03
77321;BME280;66382;52.252;8.780;2023-04-15T06:23:04;99965.16;;;8.28;62.21
77321;BME280;66382;52.252;8.780;2023-04-15T06:25:29;99958.19;;;8.27;60.77
77321;BME280;66382;52.252;8.780;2023-04-15T06:27:55;99968.84;;;8.27;61.47
77321;BME280;66382;52.252;8.780;2023-04-15T06:30:21;99965.75;;;8.24;62.66
77321;BME280;66382;52.252;8.780;2023-04-15T06:32:48;99968.59;;;8.22;62.73
77321;BME280;66382;52.252;8.780;2023-04-15T06:35:14;99973.75;;;8.24;61.90
77321;BME280;66382;52.252;8.780;2023-04-15T06:37:39;99974.38;;;8.26;62.71
77321;BME280;66382;52.252;8.780;2023-04-15T06:40:06;99972.56;;;8.26;62.31
77321;BME280;66382;52.252;8.780;2023-04-15T06:42:32;99971.69;;;8.26;62.32
77321;BME280;66382;52.252;8.780;2023-04-15T06:44:58;99967.38;;;8.25;62.81
77321;BME280;66382;52.252;8.780;2023-04-15T06:47:24;99972.56;;;8.26;61.45
77321;BME280;66382;52.252;8.780;2023-04-15T06:49:51;99970.88;;;8.25;61.84
77321;BME280;66382;52.252;8.780;2023-04-15T06:52:17;99970.72;;;8.27;63.50
77321;BME280;66382;52.252;8.780;2023-04-15T06:54:42;99967.38;;;8.25;61.80
77321;BME280;66382;52.252;8.780;2023-04-15T06:57:08;99965.75;;;8.24;61.55
77321;BME280;66382;52.252;8.780;2023-04-15T06:59:34;99965.91;;;8.22;63.55
77321;BME280;66382;52.252;8.780;2023-04-15T07:02:00;99969.78;;;8.19;63.06
77321;BME280;66382;52.252;8.780;2023-04-15T07:04:26;99961.91;;;8.11;63.89
77321;BME280;66382;52.252;8.780;2023-04-15T07:06:53;99968.31;;;8.17;63.32
77321;BME280;66382;52.252;8.780;2023-04-15T07:09:18;99963.63;;;8.19;63.41
77321;BME280;66382;52.252;8.780;2023-04-15T07:11:44;99972.09;;;8.23;63.84
77321;BME280;66382;52.252;8.780;2023-04-15T07:14:10;99977.25;;;8.24;63.16
77321;BME280;66382;52.252;8.780;2023-04-15T07:16:35;99967.38;;;8.25;63.01
77321;BME280;66382;52.252;8.780;2023-04-15T07:19:01;99982.03;;;8.29;62.05
77321;BME280;66382;52.252;8.780;2023-04-15T07:21:27;99975.03;;;8.28;63.84
77321;BME280;66382;52.252;8.780;2023-04-15T07:23:54;99982.03;;;8.29;62.44
77321;BME280;66382;52.252;8.780;2023-04-15T07:26:20;99980.00;;;8.31;62.99
77321;BME280;66382;52.252;8.780;2023-04-15T07:28:45;99971.34;;;8.29;63.85
77321;BME280;66382;52.252;8.780;2023-04-15T07:31:11;99968.75;;;8.35;63.00
77321;BME280;66382;52.252;8.780;2023-04-15T07:33:37;99966.94;;;8.36;62.30
77321;BME280;66382;52.252;8.780;2023-04-15T07:36:02;99985.25;;;8.39;63.13
77321;BME280;66382;52.252;8.780;2023-04-15T07:38:28;99979.91;;;8.39;62.86
77321;BME280;66382;52.252;8.780;2023-04-15T07:40:55;99975.22;;;8.41;62.69
77321;BME280;66382;52.252;8.780;2023-04-15T07:43:21;99974.19;;;8.42;63.68
77321;BME280;66382;52.252;8.780;2023-04-15T07:45:47;99974.19;;;8.42;63.08
77321;BME280;66382;52.252;8.780;2023-04-15T07:48:12;99981.84;;;8.45;63.23
77321;BME280;66382;52.252;8.780;2023-04-15T07:50:38;99981.84;;;8.45;64.18
77321;BME280;66382;52.252;8.780;2023-04-15T07:53:04;99986.19;;;8.46;63.68
77321;BME280;66382;52.252;8.780;2023-04-15T07:55:29;99989.50;;;8.48;63.92
77321;BME280;66382;52.252;8.780;2023-04-15T07:57:56;99990.97;;;8.51;64.26
77321;BME280;66382;52.252;8.780;2023-04-15T08:00:22;99992.59;;;8.52;63.82
77321;BME280;66382;52.252;8.780;2023-04-15T08:02:48;99987.09;;;8.53;62.89
77321;BME280;66382;52.252;8.780;2023-04-15T08:05:14;99992.50;;;8.60;63.23
77321;BME280;66382;52.252;8.780;2023-04-15T08:07:39;99993.78;;;8.64;63.95
77321;BME280;66382;52.252;8.780;2023-04-15T08:10:06;99999.94;;;8.65;63.69
77321;BME280;66382;52.252;8.780;2023-04-15T08:12:32;99996.28;;;8.66;63.99
77321;BME280;66382;52.252;8.780;2023-04-15T08:14:59;99992.31;;;8.61;64.45
77321;BME280;66382;52.252;8.780;2023-04-15T08:17:25;99997.66;;;8.61;64.44
77321;BME280;66382;52.252;8.780;2023-04-15T08:19:50;100007.97;;;8.65;62.83
77321;BME280;66382;52.252;8.780;2023-04-15T08:22:16;99997.28;;;8.65;63.48
77321;BME280;66382;52.252;8.780;2023-04-15T08:24:42;99996.44;;;8.64;63.40
77321;BME280;66382;52.252;8.780;2023-04-15T08:27:08;100008.59;;;8.67;63.91
77321;BME280;66382;52.252;8.780;2023-04-15T08:29:33;100002.81;;;8.63;65.32
77321;BME280;66382;52.252;8.780;2023-04-15T08:32:01;100006.50;;;8.62;65.15
77321;BME280;66382;52.252;8.780;2023-04-15T08:34:27;100005.66;;;8.61;63.81
77321;BME280;66382;52.252;8.780;2023-04-15T08:36:52;100008.09;;;8.56;65.34
77321;BME280;66382;52.252;8.780;2023-04-15T08:39:18;100011.03;;;8.61;63.39
77321;BME280;66382;52.252;8.780;2023-04-15T08:41:45;100015.16;;;8.64;65.30
77321;BME280;66382;52.252;8.780;2023-04-15T08:44:13;100009.63;;;8.66;63.94
77321;BME280;66382;52.252;8.780;2023-04-15T08:46:40;100012.31;;;8.66;65.98
77321;BME280;66382;52.252;8.780;2023-04-15T08:49:11;100017.44;;;8.67;62.86
77321;BME280;66382;52.252;8.780;2023-04-15T08:51:37;100010.25;;;8.68;65.36
77321;BME280;66382;52.252;8.780;2023-04-15T08:54:03;100011.53;;;8.72;65.48
77321;BME280;66382;52.252;8.780;2023-04-15T08:56:30;100015.03;;;8.72;64.70
77321;BME280;66382;52.252;8.780;2023-04-15T08:58:56;100007.84;;;8.73;63.97
77321;BME280;66382;52.252;8.780;2023-04-15T09:01:22;100006.66;;;8.75;65.29
77321;BME280;66382;52.252;8.780;2023-04-15T09:03:48;100009.34;;;8.75;64.55
77321;BME280;66382;52.252;8.780;2023-04-15T09:06:16;100013.81;;;8.75;65.65
77321;BME280;66382;52.252;8.780;2023-04-15T09:08:42;100009.78;;;8.79;66.83
77321;BME280;66382;52.252;8.780;2023-04-15T09:11:08;100005.25;;;8.79;64.54
77321;BME280;66382;52.252;8.780;2023-04-15T09:13:34;100015.56;;;8.82;66.44
77321;BME280;66382;52.252;8.780;2023-04-15T09:16:00;100016.41;;;8.83;65.23
77321;BME280;66382;52.252;8.780;2023-04-15T09:18:28;100009.84;;;8.86;64.73
77321;BME280;66382;52.252;8.780;2023-04-15T09:20:54;100011.50;;;8.87;64.78
77321;BME280;66382;52.252;8.780;2023-04-15T09:23:21;100023.00;;;8.87;65.47
77321;BME280;66382;52.252;8.780;2023-04-15T09:25:47;100025.50;;;8.89;64.09
77321;BME280;66382;52.252;8.780;2023-04-15T09:28:12;100015.47;;;8.91;65.60
77321;BME280;66382;52.252;8.780;2023-04-15T09:30:41;100025.31;;;8.90;63.29
77321;BME280;66382;52.252;8.780;2023-04-15T09:33:07;100020.81;;;8.91;65.63
77321;BME280;66382;52.252;8.780;2023-04-15T09:35:33;100022.44;;;8.92;65.43
77321;BME280;66382;52.252;8.780;2023-04-15T09:38:02;100025.94;;;8.92;66.26
77321;BME280;66382;52.252;8.780;2023-04-15T09:40:33;100026.41;;;8.96;64.95
77321;BME280;66382;52.252;8.780;2023-04-15T09:43:00;100029.50;;;8.99;66.04
77321;BME280;66382;52.252;8.780;2023-04-15T09:45:27;100035.50;;;9.01;66.42
77321;BME280;66382;52.252;8.780;2023-04-15T09:47:52;100036.97;;;9.04;66.02
77321;BME280;66382;52.252;8.780;2023-04-15T09:50:19;100037.63;;;9.06;64.48
77321;BME280;66382;52.252;8.780;2023-04-15T09:52:45;100034.75;;;9.08;66.58
77321;BME280;66382;52.252;8.780;2023-04-15T09:55:12;100033.56;;;9.10;66.39
77321;BME280;66382;52.252;8.780;2023-04-15T09:57:39;100033.16;;;9.13;65.46
77321;BME280;66382;52.252;8.780;2023-04-15T10:00:07;100040.97;;;9.15;66.79
77321;BME280;66382;52.252;8.780;2023-04-15T10:02:33;100040.81;;;9.16;65.99
77321;BME280;66382;52.252;8.780;2023-04-15T10:05:00;100041.69;;;9.23;66.21
77321;BME280;66382;52.252;8.780;2023-04-15T10:07:26;100046.88;;;9.25;66.21
77321;BME280;66382;52.252;8.780;2023-04-15T10:09:52;100046.47;;;9.28;66.65
77321;BME280;66382;52.252;8.780;2023-04-15T10:12:18;100048.59;;;9.33;66.13
77321;BME280;66382;52.252;8.780;2023-04-15T10:14:47;100050.03;;;9.35;65.83
77321;BME280;66382;52.252;8.780;2023-04-15T10:17:17;100052.16;;;9.40;66.69
77321;BME280;66382;52.252;8.780;2023-04-15T10:19:46;100043.53;;;9.44;65.60
77321;BME280;66382;52.252;8.780;2023-04-15T10:22:13;100042.53;;;9.45;66.71
77321;BME280;66382;52.252;8.780;2023-04-15T10:24:39;100042.34;;;9.47;66.33
77321;BME280;66382;52.252;8.780;2023-04-15T10:27:05;100046.47;;;9.50;66.42
77321;BME280;66382;52.252;8.780;2023-04-15T10:29:33;100048.94;;;9.51;65.75
77321;BME280;66382;52.252;8.780;2023-04-15T10:32:01;100045.84;;;9.47;66.06
77321;BME280;66382;52.252;8.780;2023-04-15T10:34:28;100055.56;;;9.55;65.76
77321;BME280;66382;52.252;8.780;2023-04-15T10:36:54;100057.44;;;9.55;67.07
77321;BME280;66382;52.252;8.780;2023-04-15T10:39:38;100049.41;;;9.55;64.14
77321;BME280;66382;52.252;8.780;2023-04-15T10:42:08;100059.50;;;9.59;65.69
77321;BME280;66382;52.252;8.780;2023-04-15T10:44:35;100057.69;;;9.60;66.16
77321;BME280;66382;52.252;8.780;2023-04-15T10:47:05;100052.44;;;9.52;65.74
77321;BME280;66382;52.252;8.780;2023-04-15T10:49:42;100061.56;;;9.57;65.11
77321;BME280;66382;52.252;8.780;2023-04-15T10:52:08;100065.47;;;9.55;66.79
77321;BME280;66382;52.252;8.780;2023-04-15T10:54:33;100072.06;;;9.59;66.36
77321;BME280;66382;52.252;8.780;2023-04-15T10:57:07;100071.69;;;9.62;65.27
77321;BME280;66382;52.252;8.780;2023-04-15T10:59:36;100073.53;;;9.61;65.85
77321;BME280;66382;52.252;8.780;2023-04-15T11:02:04;100067.75;;;9.58;65.45
77321;BME280;66382;52.252;8.780;2023-04-15T11:04:52;100077.63;;;9.57;65.00
77321;BME280;66382;52.252;8.780;2023-04-15T11:07:35;100078.22;;;9.59;64.94
77321;BME280;66382;52.252;8.780;2023-04-15T11:10:01;100081.94;;;9.58;65.32
77321;BME280;66382;52.252;8.780;2023-04-15T11:12:33;100076.97;;;9.55;65.80
77321;BME280;66382;52.252;8.780;2023-04-15T11:14:59;100083.97;;;9.56;67.14
77321;BME280;66382;52.252;8.780;2023-04-15T11:17:27;100088.50;;;9.56;66.16
77321;BME280;66382;52.252;8.780;2023-04-15T11:19:53;100086.66;;;9.56;65.04
77321;BME280;66382;52.252;8.780;2023-04-15T11:22:19;100079.19;;;9.52;66.81
77321;BME280;66382;52.252;8.780;2023-04-15T11:24:48;100079.41;;;9.50;65.95
77321;BME280;66382;52.252;8.780;2023-04-15T11:27:20;100081.50;;;9.55;65.26
77321;BME280;66382;52.252;8.780;2023-04-15T11:29:45;100079.44;;;9.57;67.34
77321;BME280;66382;52.252;8.780;2023-04-15T11:32:11;100083.59;;;9.59;66.62
77321;BME280;66382;52.252;8.780;2023-04-15T11:34:38;100078.84;;;9.55;67.33
77321;BME280;66382;52.252;8.780;2023-04-15T11:37:04;100091.44;;;9.61;67.70
77321;BME280;66382;52.252;8.780;2023-04-15T11:39:30;100085.00;;;9.55;67.09
77321;BME280;66382;52.252;8.780;2023-04-15T11:41:55;100093.09;;;9.62;67.04
77321;BME280;66382;52.252;8.780;2023-04-15T11:44:21;100087.75;;;9.62;66.85
77321;BME280;66382;52.252;8.780;2023-04-15T11:46:47;100091.25;;;9.62;67.16
77321;BME280;66382;52.252;8.780;2023-04-15T11:49:25;100091.91;;;9.64;66.80
77321;BME280;66382;52.252;8.780;2023-04-15T11:51:52;100101.38;;;9.67;66.81
77321;BME280;66382;52.252;8.780;2023-04-15T11:54:18;100101.19;;;9.68;67.86
77321;BME280;66382;52.252;8.780;2023-04-15T11:56:49;100093.53;;;9.65;65.51
77321;BME280;66382;52.252;8.780;2023-04-15T11:59:15;100105.72;;;9.68;67.07
77321;BME280;66382;52.252;8.780;2023-04-15T12:01:41;100108.97;;;9.63;66.86
77321;BME280;66382;52.252;8.780;2023-04-15T12:04:10;100110.25;;;9.67;67.28
77321;BME280;66382;52.252;8.780;2023-04-15T12:06:36;100109.22;;;9.68;67.77
77321;BME280;66382;52.252;8.780;2023-04-15T12:09:10;100117.06;;;9.70;66.68
77321;BME280;66382;52.252;8.780;2023-04-15T12:11:42;100114.56;;;9.68;66.52
77321;BME280;66382;52.252;8.780;2023-04-15T12:14:11;100119.09;;;9.68;67.70
77321;BME280;66382;52.252;8.780;2023-04-15T12:16:39;100131.91;;;9.73;67.74
77321;BME280;66382;52.252;8.780;2023-04-15T12:19:08;100133.13;;;9.70;67.48
77321;BME280;66382;52.252;8.780;2023-04-15T12:21:36;100133.13;;;9.70;66.96
77321;BME280;66382;52.252;8.780;2023-04-15T12:24:03;100144.22;;;9.67;66.23
77321;BME280;66382;52.252;8.780;2023-04-15T12:26:32;100139.22;;;9.64;67.32
77321;BME280;66382;52.252;8.780;2023-04-15T12:29:00;100138.16;;;9.58;67.08
77321;BME280;66382;52.252;8.780;2023-04-15T12:31:26;100135.94;;;9.62;65.92
77321;BME280;66382;52.252;8.780;2023-04-15T12:33:54;100151.59;;;9.65;67.69
77321;BME280;66382;52.252;8.780;2023-04-15T12:36:19;100160.44;;;9.65;67.28
77321;BME280;66382;52.252;8.780;2023-04-15T12:38:45;100154.91;;;9.67;67.31
77321;BME280;66382;52.252;8.780;2023-04-15T12:41:11;100160.72;;;9.71;67.85
77321;BME280;66382;52.252;8.780;2023-04-15T12:43:38;100160.13;;;9.75;67.63
77321;BME280;66382;52.252;8.780;2023-04-15T12:46:04;100170.06;;;9.81;67.54
77321;BME280;66382;52.252;8.780;2023-04-15T12:48:29;100163.31;;;9.85;67.80
77321;BME280;66382;52.252;8.780;2023-04-15T12:50:55;100171.59;;;9.90;67.18
77321;BME280;66382;52.252;8.780;2023-04-15T12:53:21;100172.06;;;9.94;67.47
77321;BME280;66382;52.252;8.780;2023-04-15T12:55:47;100176.81;;;9.99;67.35
77321;BME280;66382;52.252;8.780;2023-04-15T12:58:12;100170.25;;;10.01;68.04
77321;BME280;66382;52.252;8.780;2023-04-15T13:00:39;100184.47;;;10.02;67.21
77321;BME280;66382;52.252;8.780;2023-04-15T13:03:05;100171.91;;;10.02;67.50